Time;durP1;ratioP1;P1;durP2;ratioP2;P2;SDS_P1;SDS_P2;PMS_P1;PMS_P2;Temp;Humidity;BMP_temperature;BMP_pressure;BME280_temperature;BME280_humidity;BME280_pressure;Samples;Min_cycle;Max_cycle;Signal;HPM_P1;HPM_P2
2023/08/02 00:01:45;;;;;;;5.03;2.50;;;;;;;11.00;100.00;93311.75;5030830;28;20411;-60
2023/08/02 00:04:12;;;;;;;5.83;2.60;;;;;;;11.02;100.00;93308.56;5018758;28;20046;-60
2023/08/02 00:06:39;;;;;;;4.63;2.60;;;;;;;10.99;100.00;93293.75;5029986;28;20045;-62
2023/08/02 00:09:07;;;;;;;4.10;2.38;;;;;;;10.94;100.00;93297.00;5032108;28;20406;-62
2023/08/02 00:11:33;;;;;;;6.75;2.58;;;;;;;10.91;100.00;93292.38;5029871;28;20432;-62
2023/08/02 00:14:00;;;;;;;5.05;2.63;;;;;;;10.90;100.00;93288.09;5030301;28;20054;-65
2023/08/02 00:16:27;;;;;;;6.27;2.70;;;;;;;10.85;100.00;93283.91;5031447;28;20048;-62
2023/08/02 00:18:54;;;;;;;8.02;2.67;;;;;;;10.85;100.00;93285.88;5019105;28;20052;-62
2023/08/02 00:21:20;;;;;;;6.00;2.42;;;;;;;10.86;100.00;93276.44;5031545;28;20390;-65
2023/08/02 00:23:47;;;;;;;3.60;2.20;;;;;;;10.84;100.00;93270.59;5030935;28;20771;-63
2023/08/02 00:26:14;;;;;;;4.97;2.65;;;;;;;10.83;100.00;93258.88;5031663;28;20049;-62
2023/08/02 00:28:41;;;;;;;5.87;2.80;;;;;;;10.90;100.00;93253.16;5031104;28;20433;-64
2023/08/02 00:31:08;;;;;;;6.13;2.40;;;;;;;10.89;100.00;93246.16;5031317;28;20053;-62
2023/08/02 00:33:34;;;;;;;4.82;2.45;;;;;;;10.95;100.00;93240.91;5030670;28;20041;-63
2023/08/02 00:36:01;;;;;;;6.32;2.72;;;;;;;10.95;100.00;93235.41;5031275;28;20056;-65
2023/08/02 00:38:29;;;;;;;4.43;2.50;;;;;;;10.95;100.00;93238.16;5031000;28;20118;-63
2023/08/02 00:41:02;;;;;;;6.07;2.50;;;;;;;10.95;100.00;93233.44;5031471;28;20037;-63
2023/08/02 00:43:28;;;;;;;5.40;2.70;;;;;;;10.97;100.00;93219.28;5030608;28;20048;-62
2023/08/02 00:45:56;;;;;;;4.40;2.38;;;;;;;10.92;100.00;93208.81;5031198;28;20060;-65
2023/08/02 00:48:23;;;;;;;7.78;2.60;;;;;;;10.91;100.00;93208.06;5028948;28;20034;-64
2023/08/02 00:50:49;;;;;;;4.95;2.60;;;;;;;10.95;100.00;93196.97;5017194;28;20066;-63
2023/08/02 00:53:16;;;;;;;4.97;2.70;;;;;;;10.94;100.00;93193.44;5031287;28;20049;-65
2023/08/02 00:55:43;;;;;;;4.00;2.60;;;;;;;10.97;100.00;93203.56;5024163;28;20503;-62
2023/08/02 00:58:10;;;;;;;5.15;2.53;;;;;;;10.97;100.00;93208.28;5022786;28;20409;-62
2023/08/02 01:00:37;;;;;;;6.60;2.35;;;;;;;10.94;100.00;93206.41;5030298;28;20112;-65
2023/08/02 01:03:04;;;;;;;5.78;2.63;;;;;;;10.80;100.00;93204.81;5030998;28;20430;-62
2023/08/02 01:05:42;;;;;;;5.77;2.50;;;;;;;10.63;100.00;93208.84;5030295;28;20064;-60
2023/08/02 01:08:19;;;;;;;7.43;2.83;;;;;;;10.53;100.00;93211.44;5030780;28;20041;-60
2023/08/02 01:10:57;;;;;;;7.85;2.50;;;;;;;10.55;100.00;93216.50;5030129;28;20394;-60
2023/08/02 01:13:26;;;;;;;5.38;2.65;;;;;;;10.58;100.00;93212.88;5017186;28;20042;-63
2023/08/02 01:15:52;;;;;;;5.45;2.80;;;;;;;10.61;100.00;93203.78;5029813;28;21423;-61
2023/08/02 01:18:19;;;;;;;6.23;3.03;;;;;;;10.57;100.00;93209.34;5012896;28;20103;-60
2023/08/02 01:20:46;;;;;;;6.32;3.30;;;;;;;10.56;100.00;93199.59;5030006;28;20045;-60
2023/08/02 01:23:13;;;;;;;5.82;2.75;;;;;;;10.54;100.00;93207.50;5030150;28;20597;-61
2023/08/02 01:25:44;;;;;;;6.05;2.70;;;;;;;10.54;100.00;93202.00;5027956;28;20041;-60
2023/08/02 01:28:20;;;;;;;8.15;3.05;;;;;;;10.56;100.00;93201.56;5020809;28;20491;-60
2023/08/02 01:30:49;;;;;;;5.50;2.70;;;;;;;10.56;100.00;93202.34;5030011;28;20449;-60
2023/08/02 01:33:17;;;;;;;6.28;2.67;;;;;;;10.59;100.00;93195.22;5030140;28;20474;-63
2023/08/02 01:35:43;;;;;;;5.75;3.22;;;;;;;10.54;100.00;93198.47;5029566;28;20434;-61
2023/08/02 01:38:11;;;;;;;5.57;3.20;;;;;;;10.52;100.00;93195.41;5030163;28;20045;-60
2023/08/02 01:40:38;;;;;;;5.80;3.03;;;;;;;10.50;100.00;93192.31;5029775;28;20041;-60
2023/08/02 01:43:04;;;;;;;5.03;2.93;;;;;;;10.52;100.00;93196.19;5028865;28;20067;-63
2023/08/02 01:45:31;;;;;;;7.65;3.20;;;;;;;10.53;100.00;93184.00;5019831;28;20161;-60
2023/08/02 01:47:58;;;;;;;5.90;3.00;;;;;;;10.57;100.00;93192.13;5026745;28;20120;-60
2023/08/02 01:50:25;;;;;;;6.05;2.80;;;;;;;10.65;100.00;93181.75;5030006;28;20053;-63
2023/08/02 01:52:55;;;;;;;5.35;2.80;;;;;;;10.74;100.00;93179.88;5015755;28;21426;-60
2023/08/02 01:55:22;;;;;;;4.90;2.43;;;;;;;10.87;100.00;93179.16;5029910;28;20335;-63
2023/08/02 01:57:48;;;;;;;4.57;2.63;;;;;;;10.94;100.00;93162.47;5028271;28;20168;-62
2023/08/02 02:00:15;;;;;;;6.28;3.15;;;;;;;10.97;100.00;93151.41;5017928;28;20041;-60
2023/08/02 02:02:42;;;;;;;6.18;3.20;;;;;;;10.80;100.00;93130.72;5028944;28;20060;-60
2023/08/02 02:05:09;;;;;;;5.90;3.55;;;;;;;10.96;100.00;93138.09;5029685;28;20462;-60
2023/08/02 02:07:35;;;;;;;5.70;3.20;;;;;;;11.00;100.00;93130.53;5029174;28;20053;-62
2023/08/02 02:10:02;;;;;;;4.55;3.20;;;;;;;11.00;100.00;93133.28;5029658;28;20043;-66
2023/08/02 02:12:29;;;;;;;5.38;3.00;;;;;;;11.02;100.00;93139.09;5015545;28;20057;-64
2023/08/02 02:14:56;;;;;;;6.82;3.53;;;;;;;10.74;100.00;93129.72;5028540;28;20395;-62
2023/08/02 02:17:23;;;;;;;5.47;3.33;;;;;;;10.89;100.00;93128.13;5029416;28;20055;-60
2023/08/02 02:19:50;;;;;;;6.20;3.37;;;;;;;11.13;100.00;93128.59;5014412;28;20059;-60
2023/08/02 02:22:16;;;;;;;5.85;3.60;;;;;;;11.10;100.00;93121.22;5027838;28;20061;-63
2023/08/02 02:24:43;;;;;;;7.63;3.33;;;;;;;11.23;100.00;93117.69;5027503;28;20052;-61
2023/08/02 02:27:10;;;;;;;5.68;3.20;;;;;;;11.18;100.00;93113.53;5016966;28;20053;-60
2023/08/02 02:29:37;;;;;;;7.05;3.72;;;;;;;11.22;100.00;93116.94;5013283;28;20063;-60
2023/08/02 02:32:04;;;;;;;5.20;3.40;;;;;;;11.41;100.00;93109.69;5029005;28;20221;-60
2023/08/02 02:34:31;;;;;;;7.68;3.90;;;;;;;11.47;100.00;93101.66;5028398;28;20146;-63
2023/08/02 02:36:57;;;;;;;7.80;3.60;;;;;;;11.57;100.00;93095.81;5027924;28;20094;-60
2023/08/02 02:39:24;;;;;;;7.50;3.13;;;;;;;11.63;100.00;93096.03;5027798;28;20103;-60
2023/08/02 02:41:51;;;;;;;8.98;3.20;;;;;;;11.68;100.00;93100.97;5028677;28;20091;-60
2023/08/02 02:44:18;;;;;;;6.80;3.23;;;;;;;11.82;100.00;93101.72;5029316;28;20414;-60
2023/08/02 02:46:45;;;;;;;6.07;3.38;;;;;;;11.75;100.00;93095.25;5028402;28;20045;-60
2023/08/02 02:49:12;;;;;;;5.50;3.15;;;;;;;11.77;100.00;93090.06;5028807;28;20068;-60
2023/08/02 02:51:39;;;;;;;5.55;3.35;;;;;;;11.68;100.00;93078.22;5026976;28;20037;-63
2023/08/02 02:54:05;;;;;;;6.75;2.95;;;;;;;11.64;100.00;93088.56;5028840;28;20046;-61
2023/08/02 02:56:32;;;;;;;6.67;3.13;;;;;;;11.85;100.00;93076.88;5028514;28;20100;-60
2023/08/02 02:58:59;;;;;;;7.13;3.63;;;;;;;11.95;100.00;93063.97;5027504;28;20053;-60
2023/08/02 03:01:25;;;;;;;5.70;3.10;;;;;;;11.94;100.00;93074.22;5026914;28;20073;-60
2023/08/02 03:03:52;;;;;;;6.70;3.30;;;;;;;11.50;100.00;93082.31;5028962;28;20045;-60
2023/08/02 03:06:19;;;;;;;6.40;3.22;;;;;;;11.62;100.00;93069.75;5028763;28;20055;-60
2023/08/02 03:08:46;;;;;;;7.20;3.40;;;;;;;11.55;100.00;93068.03;5026937;28;20049;-61
2023/08/02 03:11:12;;;;;;;10.57;3.60;;;;;;;11.55;100.00;93062.53;5028665;28;20052;-60
2023/08/02 03:13:39;;;;;;;7.35;3.08;;;;;;;11.65;100.00;93063.38;5027745;28;20398;-60
2023/08/02 03:16:06;;;;;;;6.97;3.38;;;;;;;11.57;100.00;93062.84;5028670;28;20057;-62
2023/08/02 03:18:33;;;;;;;5.63;3.00;;;;;;;11.56;100.00;93061.31;5028128;28;20049;-61
2023/08/02 03:21:00;;;;;;;7.93;2.90;;;;;;;11.71;100.00;93049.81;5028669;28;20049;-65
2023/08/02 03:23:27;;;;;;;5.88;3.08;;;;;;;11.82;100.00;93052.25;5028304;28;20060;-60
2023/08/02 03:25:53;;;;;;;6.80;3.65;;;;;;;11.98;100.00;93041.09;5022639;28;20056;-60
2023/08/02 03:28:20;;;;;;;6.07;3.30;;;;;;;12.09;100.00;93036.00;5008604;28;20065;-64
2023/08/02 03:30:47;;;;;;;6.53;3.20;;;;;;;12.14;100.00;93040.91;5019333;28;20037;-64
2023/08/02 03:33:14;;;;;;;7.37;3.47;;;;;;;12.19;100.00;93039.56;5028501;28;20052;-61
2023/08/02 03:35:40;;;;;;;5.80;3.50;;;;;;;12.25;100.00;93035.03;5031494;28;20058;-63
2023/08/02 03:38:07;;;;;;;5.50;3.30;;;;;;;12.19;100.00;93034.84;5032199;28;20049;-61
2023/08/02 03:40:34;;;;;;;7.22;3.13;;;;;;;11.90;100.00;93032.31;5063637;28;20045;-60
2023/08/02 03:43:00;;;;;;;6.53;3.55;;;;;;;11.80;100.00;93044.44;5018750;28;20054;-63
2023/08/02 03:45:27;;;;;;;6.70;3.33;;;;;;;11.90;100.00;93031.56;5031939;28;20166;-62
2023/08/02 03:47:54;;;;;;;6.03;3.40;;;;;;;12.05;100.00;93040.06;5031989;28;20050;-60
2023/08/02 03:50:21;;;;;;;5.85;3.67;;;;;;;12.11;100.00;93033.56;5032378;28;20383;-61
2023/08/02 03:52:48;;;;;;;6.80;3.70;;;;;;;12.13;100.00;93035.84;5031642;28;20061;-61
2023/08/02 03:55:15;;;;;;;7.88;4.00;;;;;;;12.08;100.00;93036.44;5031595;28;20059;-62
2023/08/02 03:57:42;;;;;;;7.33;3.97;;;;;;;12.08;100.00;93037.22;5031532;28;20072;-61
2023/08/02 04:00:09;;;;;;;7.88;4.20;;;;;;;12.08;100.00;93039.97;5031786;28;20041;-63
2023/08/02 04:02:36;;;;;;;8.68;4.25;;;;;;;12.16;100.00;93032.22;5031480;28;20041;-63
2023/08/02 04:05:03;;;;;;;10.05;4.40;;;;;;;12.10;100.00;93034.78;5031909;28;20045;-60
2023/08/02 04:07:29;;;;;;;7.57;4.10;;;;;;;12.18;100.00;93038.03;5031534;28;20486;-61
2023/08/02 04:09:56;;;;;;;8.73;4.20;;;;;;;12.24;100.00;93030.75;5030666;28;20079;-64
2023/08/02 04:12:23;;;;;;;9.35;5.00;;;;;;;12.21;100.00;93023.38;5031396;28;20449;-61
2023/08/02 04:14:50;;;;;;;9.15;4.32;;;;;;;12.35;100.00;93019.34;5031408;28;20053;-63
2023/08/02 04:17:17;;;;;;;8.68;4.45;;;;;;;12.37;100.00;93020.47;5031598;28;20045;-61
2023/08/02 04:19:44;;;;;;;9.55;4.80;;;;;;;12.44;100.00;93010.41;5030074;28;20049;-61
2023/08/02 04:22:11;;;;;;;11.17;5.30;;;;;;;12.47;100.00;93009.50;5031663;28;20041;-60
2023/08/02 04:24:37;;;;;;;8.65;5.13;;;;;;;12.44;100.00;93013.16;5031105;28;20054;-62
2023/08/02 04:27:04;;;;;;;10.15;5.35;;;;;;;12.52;100.00;93009.69;5048255;28;20411;-64
2023/08/02 04:29:31;;;;;;;11.05;5.78;;;;;;;12.56;100.00;93001.31;5015234;28;20059;-62
2023/08/02 04:31:58;;;;;;;9.30;5.97;;;;;;;12.52;100.00;93000.66;5031518;28;20052;-60
2023/08/02 04:34:25;;;;;;;10.03;5.63;;;;;;;12.55;100.00;93002.50;5031357;28;20037;-61
2023/08/02 04:36:52;;;;;;;10.68;6.30;;;;;;;12.59;100.00;92990.13;5029497;28;20254;-62
2023/08/02 04:39:19;;;;;;;10.38;6.30;;;;;;;12.57;100.00;92986.31;5022248;28;20038;-64
2023/08/02 04:41:45;;;;;;;11.57;6.90;;;;;;;12.61;100.00;92981.44;5011057;28;20049;-61
2023/08/02 04:44:12;;;;;;;12.07;6.95;;;;;;;12.65;100.00;92979.31;5027049;28;20060;-63
2023/08/02 04:46:39;;;;;;;13.30;6.83;;;;;;;12.68;100.00;92972.16;5029155;28;20109;-60
2023/08/02 04:49:06;;;;;;;11.35;7.10;;;;;;;12.60;100.00;92974.41;5030985;28;20060;-61
2023/08/02 04:51:36;;;;;;;11.60;6.78;;;;;;;12.63;100.00;92972.72;5030465;28;20037;-61
2023/08/02 04:54:04;;;;;;;11.82;7.00;;;;;;;12.66;100.00;92961.59;5031064;28;20067;-60
2023/08/02 04:56:31;;;;;;;13.32;7.80;;;;;;;12.64;100.00;92964.03;5030482;28;20051;-60
2023/08/02 04:58:58;;;;;;;14.20;7.73;;;;;;;12.73;100.00;92961.28;5031047;28;20464;-60
2023/08/02 05:01:24;;;;;;;13.30;7.35;;;;;;;12.67;100.00;92959.59;5030747;28;20049;-64
2023/08/02 05:03:52;;;;;;;12.70;7.72;;;;;;;12.74;100.00;92951.06;5030460;28;20522;-63
2023/08/02 05:06:19;;;;;;;15.15;7.78;;;;;;;12.84;100.00;92955.38;5021900;28;20054;-61
2023/08/02 05:08:46;;;;;;;14.18;8.70;;;;;;;12.89;100.00;92959.53;5020311;28;20049;-61
2023/08/02 05:11:13;;;;;;;13.33;7.80;;;;;;;12.85;100.00;92951.41;5019215;28;20045;-61
2023/08/02 05:13:39;;;;;;;13.38;8.13;;;;;;;12.74;100.00;92951.84;5028325;28;20118;-61
2023/08/02 05:16:14;;;;;;;14.15;7.88;;;;;;;12.85;100.00;92951.41;5030505;28;20280;-64
2023/08/02 05:18:41;;;;;;;14.55;8.18;;;;;;;12.86;100.00;92949.41;5029831;28;20120;-65
2023/08/02 05:21:15;;;;;;;13.75;8.20;;;;;;;12.79;100.00;92945.72;5030695;28;20052;-61
2023/08/02 05:23:43;;;;;;;13.50;8.07;;;;;;;12.76;100.00;92935.63;5029552;28;20392;-62
2023/08/02 05:26:10;;;;;;;12.90;8.32;;;;;;;12.65;100.00;92935.25;5030338;28;20401;-66
2023/08/02 05:28:37;;;;;;;13.40;8.20;;;;;;;12.68;100.00;92936.38;5029628;28;20406;-62
2023/08/02 05:31:09;;;;;;;16.85;8.95;;;;;;;12.72;100.00;92943.25;5030151;28;20110;-63
2023/08/02 05:33:36;;;;;;;13.55;8.48;;;;;;;12.79;100.00;92936.69;5025105;28;20610;-66
2023/08/02 05:36:03;;;;;;;13.97;8.50;;;;;;;12.81;100.00;92936.25;5029143;28;20067;-63
2023/08/02 05:38:32;;;;;;;14.15;9.20;;;;;;;12.88;100.00;92938.72;5029840;28;20052;-66
2023/08/02 05:41:03;;;;;;;15.00;9.02;;;;;;;12.96;100.00;92946.25;5030169;28;20052;-62
2023/08/02 05:43:30;;;;;;;16.48;9.05;;;;;;;12.96;100.00;92943.50;5029602;28;20374;-66
2023/08/02 05:45:57;;;;;;;16.63;9.70;;;;;;;12.96;100.00;92939.97;5026485;28;20050;-61
2023/08/02 05:48:24;;;;;;;15.40;9.17;;;;;;;13.05;100.00;92934.47;5020604;28;20059;-65
2023/08/02 05:50:52;;;;;;;16.75;9.48;;;;;;;13.06;100.00;92940.75;5015184;28;20714;-63
2023/08/02 05:53:18;;;;;;;14.70;8.80;;;;;;;13.29;100.00;92933.91;5025293;28;20069;-64
2023/08/02 05:55:45;;;;;;;16.00;9.95;;;;;;;13.34;100.00;92936.09;5016778;28;20038;-61
2023/08/02 05:58:12;;;;;;;15.85;9.25;;;;;;;13.38;100.00;92936.69;5028642;28;20057;-64
2023/08/02 06:00:39;;;;;;;14.47;9.37;;;;;;;13.16;100.00;92921.03;5028759;28;20410;-64
2023/08/02 06:03:05;;;;;;;15.60;9.35;;;;;;;13.10;100.00;92922.88;5026596;28;20049;-64
2023/08/02 06:05:32;;;;;;;14.82;9.27;;;;;;;13.24;100.00;92934.50;5018286;28;20053;-61
2023/08/02 06:07:59;;;;;;;14.55;9.30;;;;;;;13.24;100.00;92926.25;5023820;28;20045;-60
2023/08/02 06:10:26;;;;;;;15.18;9.30;;;;;;;13.45;100.00;92924.63;5028905;28;20076;-60
2023/08/02 06:12:52;;;;;;;14.77;9.20;;;;;;;13.39;100.00;92929.97;5022770;28;20050;-60
2023/08/02 06:15:19;;;;;;;14.80;9.35;;;;;;;13.38;100.00;92909.16;5028268;28;20045;-60
2023/08/02 06:17:47;;;;;;;13.70;8.93;;;;;;;13.24;100.00;92910.50;5028811;28;20425;-62
2023/08/02 06:20:14;;;;;;;16.67;9.48;;;;;;;13.45;100.00;92919.13;5029361;28;20366;-60
2023/08/02 06:22:41;;;;;;;14.52;9.38;;;;;;;13.33;100.00;92927.06;5028971;28;20041;-60
2023/08/02 06:25:08;;;;;;;14.10;9.00;;;;;;;13.19;100.00;92917.38;5029247;28;20058;-60
2023/08/02 06:27:35;;;;;;;14.52;8.80;;;;;;;13.18;100.00;92912.34;5029168;28;20057;-60
2023/08/02 06:30:02;;;;;;;15.95;8.68;;;;;;;13.12;100.00;92920.44;5029620;28;20372;-62
2023/08/02 06:32:29;;;;;;;14.55;8.10;;;;;;;13.16;100.00;92921.03;5029230;28;20044;-61
2023/08/02 06:34:56;;;;;;;14.07;8.60;;;;;;;13.04;100.00;92912.91;5029488;28;20053;-63
2023/08/02 06:37:22;;;;;;;12.77;8.00;;;;;;;13.00;100.00;92918.56;5029576;28;20402;-60
2023/08/02 06:39:49;;;;;;;13.93;8.45;;;;;;;12.93;100.00;92913.34;5028887;28;20057;-60
2023/08/02 06:42:17;;;;;;;14.73;9.13;;;;;;;12.73;100.00;92905.47;5029335;28;20053;-60
2023/08/02 06:44:43;;;;;;;15.43;9.75;;;;;;;12.59;100.00;92904.81;5029026;28;20049;-64
2023/08/02 06:47:10;;;;;;;16.38;10.00;;;;;;;12.62;100.00;92905.91;5029423;28;20076;-61
2023/08/02 06:49:37;;;;;;;16.83;10.37;;;;;;;12.74;100.00;92905.03;5028628;28;20041;-60
2023/08/02 06:52:04;;;;;;;16.55;9.65;;;;;;;12.81;100.00;92901.22;5029203;28;20049;-60
2023/08/02 06:54:31;;;;;;;15.98;9.85;;;;;;;12.72;100.00;92901.22;5028654;28;20482;-61
2023/08/02 06:56:58;;;;;;;15.25;9.50;;;;;;;12.77;100.00;92903.34;5022043;28;20064;-63
2023/08/02 06:59:24;;;;;;;14.45;9.25;;;;;;;12.80;100.00;92907.97;5011869;28;20106;-61
2023/08/02 07:01:52;;;;;;;15.60;9.60;;;;;;;12.86;100.00;92897.88;5020357;28;22003;-61
2023/08/02 07:04:19;;;;;;;14.60;8.85;;;;;;;12.81;100.00;92911.47;5022682;28;20452;-64
2023/08/02 07:06:46;;;;;;;13.60;8.70;;;;;;;12.87;100.00;92902.16;5027331;28;20057;-61
2023/08/02 07:09:14;;;;;;;14.98;9.25;;;;;;;12.96;100.00;92904.94;5028904;28;20047;-61
2023/08/02 07:11:40;;;;;;;13.35;8.38;;;;;;;12.91;100.00;92888.25;5028326;28;20049;-61
2023/08/02 07:14:07;;;;;;;13.17;8.70;;;;;;;12.87;100.00;92896.63;5028719;28;20045;-61
2023/08/02 07:16:34;;;;;;;12.95;8.10;;;;;;;12.93;100.00;92899.56;5028632;28;20047;-60
2023/08/02 07:19:02;;;;;;;12.82;8.35;;;;;;;12.96;100.00;92882.16;5029032;28;20045;-62
2023/08/02 07:21:30;;;;;;;15.73;8.90;;;;;;;12.98;100.00;92887.97;5028443;28;20401;-61
2023/08/02 07:23:57;;;;;;;13.90;8.63;;;;;;;13.06;100.00;92897.47;5028895;28;20094;-61
2023/08/02 07:26:23;;;;;;;14.07;8.87;;;;;;;13.09;100.00;92895.78;5028980;28;20048;-60
2023/08/02 07:28:50;;;;;;;13.00;8.02;;;;;;;13.09;100.00;92902.03;5028572;28;20045;-61
2023/08/02 07:31:17;;;;;;;13.60;8.65;;;;;;;13.05;100.00;92884.91;5028721;28;20347;-63
2023/08/02 07:33:45;;;;;;;13.43;8.25;;;;;;;13.13;100.00;92883.38;5027196;28;20037;-61
2023/08/02 07:36:17;;;;;;;15.85;9.57;;;;;;;13.25;100.00;92881.72;5028775;28;20037;-65
2023/08/02 07:38:45;;;;;;;14.20;8.70;;;;;;;13.12;100.00;92876.34;5028481;28;20042;-61
2023/08/02 07:41:12;;;;;;;14.98;9.23;;;;;;;13.15;100.00;92880.94;5028675;28;20080;-64
2023/08/02 07:43:39;;;;;;;14.90;9.60;;;;;;;13.15;100.00;92880.94;5028407;28;20106;-64
2023/08/02 07:46:15;;;;;;;16.05;8.93;;;;;;;13.18;100.00;92874.53;5028554;28;20379;-65
2023/08/02 07:48:42;;;;;;;15.00;9.52;;;;;;;13.29;100.00;92889.84;5027995;28;20053;-63
2023/08/02 07:51:09;;;;;;;14.40;8.97;;;;;;;13.27;100.00;92882.03;5027083;28;20053;-61
2023/08/02 07:53:36;;;;;;;15.07;9.60;;;;;;;13.38;100.00;92868.59;5021490;28;20057;-61
2023/08/02 07:56:04;;;;;;;15.82;10.02;;;;;;;13.22;100.00;92868.88;5022248;28;20069;-61
2023/08/02 07:58:31;;;;;;;15.10;9.35;;;;;;;13.27;100.00;92867.50;5022731;28;20383;-62
2023/08/02 08:01:04;;;;;;;16.73;10.30;;;;;;;13.18;100.00;92869.00;5021369;28;20375;-63
2023/08/02 08:03:31;;;;;;;16.10;9.87;;;;;;;13.20;100.00;92882.34;5015243;28;20038;-61
2023/08/02 08:05:58;;;;;;;16.70;10.60;;;;;;;13.29;100.00;92862.28;5028578;28;20053;-62
2023/08/02 08:08:24;;;;;;;16.33;10.30;;;;;;;13.17;100.00;92861.97;5028536;28;20041;-61
2023/08/02 08:10:52;;;;;;;17.33;10.55;;;;;;;13.28;100.00;92858.78;5027567;28;20966;-61
2023/08/02 08:13:19;;;;;;;17.23;11.18;;;;;;;13.29;100.00;92854.03;5028460;28;20041;-61
2023/08/02 08:15:46;;;;;;;15.60;10.17;;;;;;;13.48;100.00;92849.28;5023003;28;20046;-60
2023/08/02 08:18:12;;;;;;;17.65;10.88;;;;;;;13.69;100.00;92850.34;5020257;28;20041;-61
2023/08/02 08:20:39;;;;;;;16.08;10.40;;;;;;;13.68;100.00;92849.59;5029321;28;20118;-64
2023/08/02 08:23:06;;;;;;;15.60;10.75;;;;;;;13.63;100.00;92849.44;5032169;28;20421;-61
2023/08/02 08:25:33;;;;;;;16.60;10.98;;;;;;;13.72;100.00;92839.16;5025188;28;20494;-62
2023/08/02 08:27:59;;;;;;;18.60;10.93;;;;;;;13.78;100.00;92836.53;5012348;28;20089;-63
2023/08/02 08:30:26;;;;;;;15.95;10.75;;;;;;;13.94;100.00;92829.91;5024350;28;20049;-61
2023/08/02 08:32:53;;;;;;;15.38;10.20;;;;;;;14.20;100.00;92819.25;5018251;28;20049;-61
2023/08/02 08:35:20;;;;;;;16.98;11.07;;;;;;;14.29;100.00;92812.97;5029857;28;20050;-64
2023/08/02 08:37:49;;;;;;;17.40;10.43;;;;;;;14.30;100.00;92806.94;5029291;28;20057;-62
2023/08/02 08:40:17;;;;;;;16.80;10.13;;;;;;;14.41;100.00;92802.91;5030442;28;20050;-61
2023/08/02 08:42:51;;;;;;;17.63;10.10;;;;;;;14.62;100.00;92809.44;5030131;28;20505;-61
2023/08/02 08:45:20;;;;;;;15.63;9.82;;;;;;;14.80;100.00;92812.09;5031023;28;20050;-61
2023/08/02 08:47:47;;;;;;;18.05;10.18;;;;;;;14.62;100.00;92806.69;5030485;28;20529;-61
2023/08/02 08:50:16;;;;;;;15.95;9.70;;;;;;;14.53;100.00;92810.25;5030993;28;20098;-60
2023/08/02 08:52:47;;;;;;;15.20;9.73;;;;;;;15.08;100.00;92798.09;5030365;28;20044;-60
2023/08/02 08:55:15;;;;;;;15.05;10.40;;;;;;;15.03;100.00;92801.50;5030471;28;20151;-65
2023/08/02 08:57:44;;;;;;;14.23;10.13;;;;;;;15.27;100.00;92787.66;5030316;28;20053;-60
2023/08/02 09:00:13;;;;;;;15.40;10.23;;;;;;;15.47;100.00;92787.03;5030387;28;20049;-60
2023/08/02 09:02:42;;;;;;;14.52;10.07;;;;;;;16.02;100.00;92794.03;5030418;28;20060;-60
2023/08/02 09:05:10;;;;;;;17.73;9.70;;;;;;;16.49;100.00;92775.63;5015572;28;20801;-63
2023/08/02 09:07:36;;;;;;;13.95;9.63;;;;;;;16.95;100.00;92769.50;5030182;28;20080;-62
2023/08/02 09:10:04;;;;;;;11.55;8.48;;;;;;;17.06;100.00;92760.53;5030587;28;20053;-60
2023/08/02 09:12:45;;;;;;;12.75;8.70;;;;;;;16.85;100.00;92757.03;5018235;28;20056;-60
2023/08/02 09:15:15;;;;;;;12.48;8.68;;;;;;;16.87;100.00;92746.22;5029985;28;20508;-60
2023/08/02 09:17:46;;;;;;;13.10;8.50;;;;;;;16.89;100.00;92740.94;5030244;28;20041;-61
2023/08/02 09:20:14;;;;;;;11.60;8.80;;;;;;;17.00;100.00;92741.06;5030090;28;20049;-60
2023/08/02 09:22:41;;;;;;;11.38;8.40;;;;;;;17.68;100.00;92730.69;5030109;28;20256;-61
2023/08/02 09:25:18;;;;;;;13.30;8.57;;;;;;;17.22;100.00;92732.25;5026378;28;20050;-61
2023/08/02 09:27:46;;;;;;;13.35;9.20;;;;;;;17.08;100.00;92731.09;5010268;28;20060;-63
2023/08/02 09:30:28;;;;;;;12.90;8.60;;;;;;;17.14;100.00;92734.69;5021805;28;20045;-61
2023/08/02 09:33:02;;;;;;;11.45;8.60;;;;;;;17.02;100.00;92735.03;5029603;28;20181;-61
2023/08/02 09:35:51;;;;;;;11.80;8.65;;;;;;;17.53;100.00;92742.66;5030104;28;20399;-61
2023/08/02 09:38:17;;;;;;;12.40;8.75;;;;;;;18.11;100.00;92720.47;5030705;28;20080;-60
2023/08/02 09:40:48;;;;;;;12.20;8.60;;;;;;;18.34;100.00;92715.84;5028729;28;20041;-63
2023/08/02 09:43:18;;;;;;;11.57;8.37;;;;;;;18.92;100.00;92703.78;5019377;28;20054;-61
2023/08/02 09:45:45;;;;;;;10.90;7.72;;;;;;;19.13;100.00;92696.78;5029899;28;20049;-60
2023/08/02 09:48:12;;;;;;;10.23;8.05;;;;;;;19.25;100.00;92688.47;5030230;28;20053;-61
2023/08/02 09:50:55;;;;;;;11.20;8.00;;;;;;;21.09;100.00;92682.53;5029607;28;20049;-61
2023/08/02 09:53:24;;;;;;;10.60;8.15;;;;;;;20.87;100.00;92669.44;5030580;28;20445;-60
2023/08/02 09:55:56;;;;;;;10.10;7.10;;;;;;;20.74;100.00;92656.03;5029121;28;20409;-63
2023/08/02 09:58:24;;;;;;;11.68;7.38;;;;;;;20.82;100.00;92657.03;5030398;28;20072;-60
2023/08/02 10:00:52;;;;;;;10.73;6.72;;;;;;;21.22;100.00;92659.66;5027979;28;20950;-61
2023/08/02 10:03:22;;;;;;;8.30;6.20;;;;;;;22.21;100.00;92636.34;5030014;28;20041;-64
2023/08/02 10:05:55;;;;;;;8.90;6.50;;;;;;;22.70;100.00;92639.16;5029149;28;20413;-60
2023/08/02 10:08:26;;;;;;;9.93;6.00;;;;;;;22.64;100.00;92634.94;5029830;28;20067;-64
2023/08/02 10:10:53;;;;;;;8.98;5.90;;;;;;;22.84;100.00;92605.69;5029428;28;21211;-66
2023/08/02 10:13:26;;;;;;;8.30;5.70;;;;;;;23.86;100.00;92617.00;5016821;28;20033;-65
2023/08/02 10:15:54;;;;;;;7.40;5.47;;;;;;;24.11;100.00;92611.28;5028937;28;20181;-62
2023/08/02 10:18:24;;;;;;;8.32;5.95;;;;;;;24.33;100.00;92604.50;5029841;28;20045;-63
2023/08/02 10:20:52;;;;;;;8.40;5.50;;;;;;;25.12;100.00;92606.53;5028679;28;20397;-60
2023/08/02 10:23:19;;;;;;;7.35;5.20;;;;;;;25.04;100.00;92597.28;5029598;28;20049;-60
2023/08/02 10:25:47;;;;;;;8.18;4.50;;;;;;;24.21;100.00;92600.41;5024596;28;20064;-63
2023/08/02 10:28:14;;;;;;;6.13;4.05;;;;;;;23.45;100.00;92592.94;5019820;28;20059;-61
2023/08/02 10:30:41;;;;;;;5.28;3.58;;;;;;;23.25;100.00;92588.63;5022378;28;20040;-62
2023/08/02 10:33:14;;;;;;;5.43;3.50;;;;;;;22.65;100.00;92588.88;5029503;28;20379;-62
2023/08/02 10:35:54;;;;;;;4.65;3.20;;;;;;;22.48;100.00;92595.44;5028901;28;20053;-60
2023/08/02 10:38:46;;;;;;;4.90;3.10;;;;;;;22.39;100.00;92590.19;5029747;28;20037;-61
2023/08/02 10:41:18;;;;;;;4.70;3.30;;;;;;;23.08;100.00;92590.91;5025652;28;20667;-62
2023/08/02 10:43:54;;;;;;;6.05;3.70;;;;;;;23.42;100.00;92596.81;5028543;28;20421;-61
2023/08/02 10:46:24;;;;;;;4.57;3.37;;;;;;;23.05;100.00;92595.53;5016212;28;20037;-66
2023/08/02 10:48:52;;;;;;;4.70;3.15;;;;;;;22.69;100.00;92581.72;5027320;28;20110;-61
2023/08/02 10:51:34;;;;;;;7.13;3.88;;;;;;;23.40;100.00;92588.19;5029100;28;20044;-62
2023/08/02 10:54:21;;;;;;;5.40;3.90;;;;;;;23.30;100.00;92587.81;5028531;28;20056;-65
2023/08/02 10:56:51;;;;;;;7.20;4.18;;;;;;;23.69;100.00;92594.84;5017667;28;20045;-62
2023/08/02 10:59:36;;;;;;;5.07;3.73;;;;;;;23.31;100.00;92583.72;5016229;28;20100;-62
2023/08/02 11:02:08;;;;;;;6.65;3.90;;;;;;;22.94;100.00;92590.81;5028544;28;20071;-62
2023/08/02 11:04:37;;;;;;;6.93;4.03;;;;;;;23.25;100.00;92582.28;5015722;28;20050;-65
2023/08/02 11:07:18;;;;;;;6.57;4.10;;;;;;;22.77;100.00;92579.06;5029251;28;20400;-61
2023/08/02 11:09:46;;;;;;;6.40;4.07;;;;;;;22.98;100.00;92587.72;5028703;28;20045;-61
2023/08/02 11:12:18;;;;;;;5.47;3.97;;;;;;;22.96;100.00;92564.34;5028674;28;20049;-61
2023/08/02 11:14:47;;;;;;;6.20;4.30;;;;;;;22.46;100.00;92575.63;5028465;28;20065;-62
2023/08/02 11:17:19;;;;;;;7.07;4.10;;;;;;;22.51;100.00;92565.66;5021101;28;20042;-64
2023/08/02 11:19:59;;;;;;;6.22;3.88;;;;;;;23.04;100.00;92554.84;5025226;28;20998;-61
2023/08/02 11:22:35;;;;;;;5.55;4.10;;;;;;;23.38;100.00;92548.00;5028694;28;20064;-61
2023/08/02 11:25:03;;;;;;;5.67;3.90;;;;;;;23.30;100.00;92550.66;5028914;28;20045;-61